createdAt,value
2023-02-04T00:03:04.640Z,99906.44
2023-02-04T00:07:06.485Z,99922.69
2023-02-04T00:11:08.535Z,99923.94
2023-02-04T00:15:11.010Z,99941.91
2023-02-04T00:19:12.864Z,99946.34
2023-02-04T00:23:15.026Z,99960.75
2023-02-04T00:27:17.034Z,99972.84
2023-02-04T00:31:19.228Z,99985.00
2023-02-04T00:35:21.801Z,99989.31
2023-02-04T00:39:24.114Z,100009.22
2023-02-04T00:43:26.243Z,100020.44
2023-02-04T00:47:28.454Z,100023.06
2023-02-04T00:51:31.612Z,100038.53
2023-02-04T00:55:34.304Z,100051.50
2023-02-04T00:59:36.398Z,100060.94
2023-02-04T01:03:38.533Z,100075.28
2023-02-04T01:07:40.624Z,100089.25
2023-02-04T01:11:42.770Z,100085.72
2023-02-04T01:15:45.134Z,100114.97
2023-02-04T01:19:47.862Z,100112.53
2023-02-04T01:23:50.250Z,100131.44
2023-02-04T01:27:52.497Z,100145.50
2023-02-04T01:31:54.587Z,100146.78
2023-02-04T01:35:56.661Z,100177.09
2023-02-04T01:39:58.722Z,100183.31
2023-02-04T01:44:00.875Z,100187.16
2023-02-04T01:48:06.618Z,100233.72
2023-02-04T01:52:10.819Z,100234.13
2023-02-04T01:56:20.031Z,100246.47
2023-02-04T02:00:28.366Z,100256.50
2023-02-04T02:04:33.090Z,100262.75
2023-02-04T02:08:37.849Z,100275.53
2023-02-04T02:12:40.799Z,100290.44
2023-02-04T02:16:43.829Z,100304.16
2023-02-04T02:20:47.442Z,100318.50
2023-02-04T02:24:49.409Z,100346.22
2023-02-04T02:28:51.370Z,100367.66
2023-02-04T02:32:54.193Z,100372.78
2023-02-04T02:36:58.200Z,100398.56
2023-02-04T02:41:00.347Z,100412.31
2023-02-04T02:45:11.257Z,100419.31
2023-02-04T02:49:16.820Z,100447.53
2023-02-04T02:53:20.829Z,100473.38
2023-02-04T02:57:24.526Z,100484.50
2023-02-04T03:01:27.280Z,100504.38
2023-02-04T03:05:34.208Z,100514.63
2023-02-04T03:09:36.773Z,100530.09
2023-02-04T03:13:39.844Z,100537.88
2023-02-04T03:17:43.052Z,100551.59
2023-02-04T03:21:45.896Z,100549.84
2023-02-04T03:25:47.897Z,100566.25
2023-02-04T03:29:49.868Z,100576.66
2023-02-04T03:33:51.842Z,100588.63
2023-02-04T03:37:53.836Z,100609.19
2023-02-04T03:41:55.472Z,100629.03
2023-02-04T03:45:57.530Z,100642.78
2023-02-04T03:49:59.212Z,100660.03
2023-02-04T03:54:01.136Z,100674.69
2023-02-04T03:58:03.867Z,100691.03
2023-02-04T04:02:06.202Z,100693.63
2023-02-04T04:06:09.992Z,100720.41
2023-02-04T04:10:12.545Z,100746.19
2023-02-04T04:14:14.638Z,100748.91
2023-02-04T04:18:17.012Z,100770.38
2023-02-04T04:22:19.211Z,100772.16
2023-02-04T04:26:21.200Z,100795.31
2023-02-04T04:30:23.355Z,100805.63
2023-02-04T04:34:25.327Z,100821.13
2023-02-04T04:38:27.278Z,100831.44
2023-02-04T04:42:29.227Z,100844.31
2023-02-04T04:46:31.217Z,100869.25
2023-02-04T04:50:33.515Z,100882.91
2023-02-04T04:54:35.760Z,100890.63
2023-02-04T04:58:37.722Z,100900.09
2023-02-04T05:02:39.647Z,100906.09
2023-02-04T05:06:41.840Z,100935.31
2023-02-04T05:10:44.088Z,100936.19
2023-02-04T05:14:46.081Z,100948.25
2023-02-04T05:18:48.122Z,100964.47
2023-02-04T05:22:50.375Z,100975.66
2023-02-04T05:26:52.408Z,100993.75
2023-02-04T05:30:54.493Z,100991.13
2023-02-04T05:34:56.502Z,101011.81
2023-02-04T05:38:58.453Z,101018.66
2023-02-04T05:43:00.524Z,101025.50
2023-02-04T05:47:02.596Z,101043.63
2023-02-04T05:51:04.640Z,101058.19
2023-02-04T05:55:07.775Z,101074.56
2023-02-04T05:59:09.746Z,101096.84
2023-02-04T06:03:11.399Z,101114.13
2023-02-04T06:07:13.525Z,101136.50
2023-02-04T06:11:15.654Z,101148.50
2023-02-04T06:15:17.634Z,101167.44
2023-02-04T06:19:19.663Z,101187.22
2023-02-04T06:23:21.620Z,101209.59
2023-02-04T06:27:23.941Z,101218.16
2023-02-04T06:31:26.038Z,101232.81
2023-02-04T06:35:28.099Z,101237.97
2023-02-04T06:39:30.047Z,101247.44
2023-02-04T06:43:32.127Z,101264.59
2023-02-04T06:47:34.153Z,101278.38
2023-02-04T06:51:36.224Z,101292.09
2023-02-04T06:55:38.954Z,101303.22
2023-02-04T06:59:43.153Z,101323.03
2023-02-04T07:03:45.100Z,101327.34
2023-02-04T07:07:47.159Z,101331.59
2023-02-04T07:11:49.132Z,101355.59
2023-02-04T07:15:52.895Z,101367.69
2023-02-04T07:19:54.893Z,101391.69
2023-02-04T07:23:56.984Z,101400.28
2023-02-04T07:27:59.410Z,101408.84
2023-02-04T07:32:01.625Z,101419.06
2023-02-04T07:36:04.152Z,101439.72
2023-02-04T07:40:06.732Z,101440.56
2023-02-04T07:44:08.651Z,101450.91
2023-02-04T07:48:11.007Z,101459.47
2023-02-04T07:52:13.138Z,101471.56
2023-02-04T07:56:15.236Z,101486.22
2023-02-04T08:00:17.071Z,101485.28
2023-02-04T08:04:19.074Z,101492.19
2023-02-04T08:08:21.039Z,101503.44
2023-02-04T08:12:23.018Z,101513.84
2023-02-04T08:16:25.217Z,101517.28
2023-02-04T08:20:27.512Z,101524.97
2023-02-04T08:24:29.440Z,101549.00
2023-02-04T08:28:31.558Z,101542.19
2023-02-04T08:32:33.518Z,101549.03
2023-02-04T08:36:35.589Z,101561.03
2023-02-04T08:40:37.559Z,101565.31
2023-02-04T08:44:39.678Z,101572.31
2023-02-04T08:48:41.679Z,101588.50
2023-02-04T08:52:43.634Z,101585.13
2023-02-04T08:56:45.677Z,101590.38
2023-02-04T09:00:47.734Z,101587.06
2023-02-04T09:04:49.885Z,101609.44
2023-02-04T09:08:51.806Z,101608.59
2023-02-04T09:12:56.101Z,101599.06
2023-02-04T09:16:58.213Z,101590.63
2023-02-04T09:21:00.225Z,101606.06
2023-02-04T09:25:02.178Z,101609.56
2023-02-04T09:29:04.130Z,101609.56
2023-02-04T09:33:06.165Z,101606.03
2023-02-04T09:37:08.105Z,101603.53
2023-02-04T09:41:12.846Z,101634.53
2023-02-04T09:45:18.571Z,101632.84
2023-02-04T09:49:20.651Z,101638.00
2023-02-04T09:53:24.736Z,101644.88
2023-02-04T09:57:28.001Z,101646.78
2023-02-04T10:01:30.010Z,101641.56
2023-02-04T10:05:34.357Z,101658.69
2023-02-04T10:09:36.543Z,101663.97
2023-02-04T10:13:50.497Z,101659.66
2023-02-04T10:17:58.074Z,101672.41
2023-02-04T10:22:00.547Z,101680.97
2023-02-04T10:26:04.135Z,101670.78
2023-02-04T10:30:06.479Z,101676.69
2023-02-04T10:34:21.739Z,101690.59
2023-02-04T10:38:23.962Z,101688.91
2023-02-04T10:42:28.124Z,101701.16
2023-02-04T10:46:32.018Z,101698.59
2023-02-04T10:50:34.385Z,101695.03
2023-02-04T10:54:38.979Z,101714.09
2023-02-04T10:58:41.066Z,101702.78
2023-02-04T11:02:55.019Z,101722.47
2023-02-04T11:06:57.100Z,101718.91
2023-02-04T11:11:04.752Z,101704.19
2023-02-04T11:15:08.120Z,101712.09
2023-02-04T11:19:14.515Z,101697.56
2023-02-04T11:23:32.294Z,101700.19
2023-02-04T11:27:41.070Z,101726.00
2023-02-04T11:31:49.370Z,101711.44
2023-02-04T11:36:00.490Z,101713.97
2023-02-04T11:40:20.996Z,101724.34
2023-02-04T11:44:25.207Z,101724.34
2023-02-04T11:48:27.239Z,101723.34
2023-02-04T11:52:29.330Z,101720.91
2023-02-04T11:56:31.086Z,101721.88
2023-02-04T12:00:34.081Z,101719.97
2023-02-04T12:04:36.104Z,101721.84
2023-02-04T12:08:38.380Z,101744.22
2023-02-04T12:12:49.248Z,101730.44
2023-02-04T12:16:51.709Z,101734.72
2023-02-04T12:20:55.134Z,101742.44
2023-02-04T12:24:57.078Z,101748.44
2023-02-04T12:29:03.622Z,101731.28
2023-02-04T12:33:05.706Z,101758.72
2023-02-04T12:37:07.750Z,101753.63
2023-02-04T12:41:10.279Z,101755.31
2023-02-04T12:45:14.922Z,101767.34
2023-02-04T12:49:16.913Z,101785.50
2023-02-04T12:53:18.907Z,101766.59
2023-02-04T12:57:20.951Z,101762.41
2023-02-04T13:01:23.921Z,101788.16
2023-02-04T13:05:26.939Z,101793.34
2023-02-04T13:09:28.595Z,101801.75
2023-02-04T13:13:30.630Z,101799.97
2023-02-04T13:17:32.637Z,101807.09
2023-02-04T13:21:34.588Z,101818.38
2023-02-04T13:25:36.498Z,101813.13
2023-02-04T13:29:38.482Z,101813.09
2023-02-04T13:33:40.499Z,101820.97
2023-02-04T13:37:42.497Z,101827.84
2023-02-04T13:41:44.553Z,101836.34
2023-02-04T13:45:48.842Z,101832.94
2023-02-04T13:49:50.828Z,101845.06
2023-02-04T13:53:52.891Z,101847.03
2023-02-04T13:57:54.884Z,101859.94
2023-02-04T14:01:57.048Z,101862.28
2023-02-04T14:05:59.050Z,101864.03
2023-02-04T14:10:01.159Z,101866.63
2023-02-04T14:14:03.168Z,101863.09
2023-02-04T14:18:05.264Z,101870.66
2023-02-04T14:22:07.853Z,101873.97
2023-02-04T14:26:09.831Z,101867.91
2023-02-04T14:30:23.750Z,101862.75
2023-02-04T14:34:26.017Z,101874.81
2023-02-04T14:38:31.150Z,101879.75
2023-02-04T14:42:33.287Z,101884.03
2023-02-04T14:46:35.266Z,101890.72
2023-02-04T14:50:37.276Z,101896.66
2023-02-04T14:54:39.442Z,101901.66
2023-02-04T14:58:41.767Z,101906.50
2023-02-04T15:02:43.906Z,101906.75
2023-02-04T15:06:46.246Z,101914.53
2023-02-04T15:10:48.269Z,101921.41
2023-02-04T15:14:50.545Z,101928.13
2023-02-04T15:18:52.457Z,101925.38
2023-02-04T15:22:56.425Z,101927.97
2023-02-04T15:26:58.636Z,101923.47
2023-02-04T15:31:02.113Z,101932.22
2023-02-04T15:35:04.542Z,101938.09
2023-02-04T15:39:06.966Z,101938.19
2023-02-04T15:43:08.943Z,101947.53
2023-02-04T15:47:11.044Z,101954.38
2023-02-04T15:51:13.056Z,101959.38
2023-02-04T15:55:15.241Z,101965.44
2023-02-04T15:59:17.238Z,101962.19
2023-02-04T16:03:19.215Z,101975.81
2023-02-04T16:07:21.206Z,101985.41
2023-02-04T16:11:23.331Z,101989.81
2023-02-04T16:15:25.904Z,101986.19
2023-02-04T16:19:28.366Z,101994.78
2023-02-04T16:23:30.344Z,101999.94
2023-02-04T16:27:33.837Z,102016.03
2023-02-04T16:31:35.846Z,102016.09
2023-02-04T16:36:01.004Z,102020.31
2023-02-04T16:40:05.069Z,102026.25
2023-02-04T16:44:07.207Z,102026.09
2023-02-04T16:48:09.292Z,102039.13
2023-02-04T16:52:11.486Z,102033.19
2023-02-04T16:56:13.442Z,102046.88
2023-02-04T17:00:15.721Z,102054.69
2023-02-04T17:04:17.809Z,102070.44
2023-02-04T17:08:19.919Z,102066.56
2023-02-04T17:12:21.961Z,102067.31
2023-02-04T17:16:24.576Z,102069.88
2023-02-04T17:20:26.506Z,102074.84
2023-02-04T17:24:28.677Z,102078.06
2023-02-04T17:28:30.739Z,102087.91
2023-02-04T17:32:32.657Z,102100.50
2023-02-04T17:36:35.144Z,102107.38
2023-02-04T17:40:37.133Z,102116.81
2023-02-04T17:44:39.084Z,102116.47
2023-02-04T17:48:41.038Z,102112.09
2023-02-04T17:52:43.033Z,102122.09
2023-02-04T17:56:45.017Z,102121.56
2023-02-04T18:00:47.866Z,102123.22
2023-02-04T18:04:50.158Z,102121.34
2023-02-04T18:08:52.873Z,102120.03
2023-02-04T18:12:57.113Z,102127.94
2023-02-04T18:17:00.542Z,102130.34
2023-02-04T18:21:31.127Z,102132.00
2023-02-04T18:25:33.777Z,102143.97
2023-02-04T18:29:38.463Z,102149.13
2023-02-04T18:33:41.829Z,102152.28
2023-02-04T18:37:49.416Z,102161.88
2023-02-04T18:41:51.833Z,102158.63
2023-02-04T18:45:54.343Z,102169.94
2023-02-04T18:49:56.533Z,102165.63
2023-02-04T18:54:22.075Z,102171.84
2023-02-04T18:58:33.923Z,102169.88
2023-02-04T19:02:57.663Z,102175.91
2023-02-04T19:07:00.043Z,102183.75
2023-02-04T19:11:02.207Z,102185.97
2023-02-04T19:15:29.730Z,102190.22
2023-02-04T19:19:59.307Z,102197.84
2023-02-04T19:24:23.471Z,102206.91
2023-02-04T19:28:34.840Z,102220.75
2023-02-04T19:32:53.413Z,102216.91
2023-02-04T19:36:56.271Z,102218.28
2023-02-04T19:40:58.323Z,102226.16
2023-02-04T19:45:19.994Z,102225.97
2023-02-04T19:49:24.789Z,102225.63
2023-02-04T19:53:29.833Z,102232.63
2023-02-04T19:57:33.734Z,102224.81
2023-02-04T20:01:35.741Z,102224.88
2023-02-04T20:05:37.725Z,102234.63
2023-02-04T20:09:39.374Z,102244.00
2023-02-04T20:13:41.399Z,102244.72
2023-02-04T20:17:50.558Z,102250.63
2023-02-04T20:22:00.130Z,102262.00
2023-02-04T20:26:02.148Z,102257.75
2023-02-04T20:30:11.924Z,102266.94
2023-02-04T20:34:22.291Z,102261.53
2023-02-04T20:38:24.413Z,102265.53
2023-02-04T20:42:48.213Z,102269.28
2023-02-04T20:46:50.477Z,102274.13
2023-02-04T20:50:54.390Z,102281.47
2023-02-04T20:54:57.389Z,102282.84
2023-02-04T20:59:11.735Z,102292.28
2023-02-04T21:03:26.067Z,102302.06
2023-02-04T21:07:28.075Z,102311.38
2023-02-04T21:11:30.147Z,102313.66
2023-02-04T21:15:33.925Z,102319.50
2023-02-04T21:19:36.964Z,102320.50
2023-02-04T21:23:39.692Z,102324.28
2023-02-04T21:27:41.884Z,102322.34
2023-02-04T21:31:46.487Z,102331.38
2023-02-04T21:35:48.569Z,102334.53
2023-02-04T21:39:50.633Z,102335.38
2023-02-04T21:43:52.689Z,102336.09
2023-02-04T21:47:54.741Z,102343.03
2023-02-04T21:51:56.748Z,102345.97
2023-02-04T21:55:59.471Z,102350.75
2023-02-04T22:00:01.601Z,102356.78
2023-02-04T22:04:03.354Z,102363.16
2023-02-04T22:08:05.317Z,102370.94
2023-02-04T22:12:07.416Z,102368.44
2023-02-04T22:16:09.421Z,102376.00
2023-02-04T22:20:12.633Z,102365.47
2023-02-04T22:24:14.597Z,102362.84
2023-02-04T22:28:16.641Z,102375.03
2023-02-04T22:32:18.689Z,102379.88
2023-02-04T22:36:20.714Z,102383.19
2023-02-04T22:40:22.704Z,102383.25
2023-02-04T22:44:25.677Z,102380.28
2023-02-04T22:48:27.655Z,102388.97
2023-02-04T22:52:29.797Z,102395.31
2023-02-04T22:56:31.744Z,102405.50
2023-02-04T23:00:33.682Z,102415.94
2023-02-04T23:04:36.030Z,102420.41
2023-02-04T23:08:38.015Z,102419.63
2023-02-04T23:12:39.964Z,102428.03
2023-02-04T23:16:42.129Z,102428.69
2023-02-04T23:20:44.288Z,102441.75
2023-02-04T23:24:46.321Z,102439.59
2023-02-04T23:28:48.396Z,102438.91
2023-02-04T23:32:50.369Z,102435.97
2023-02-04T23:36:52.507Z,102441.69
2023-02-04T23:40:57.041Z,102443.06
2023-02-04T23:44:59.199Z,102455.09
2023-02-04T23:49:01.201Z,102456.69
2023-02-04T23:53:03.701Z,102460.00
2023-02-04T23:57:05.924Z,102461.28
